createdAt,value
2017-03-03T00:01:04.491Z,4.52
2017-03-03T00:02:17.597Z,4.53
2017-03-03T00:03:30.689Z,4.48
2017-03-03T00:04:43.741Z,4.39
2017-03-03T00:05:56.858Z,4.34
2017-03-03T00:07:10.181Z,4.49
2017-03-03T00:08:23.250Z,4.45
2017-03-03T00:09:36.346Z,4.46
2017-03-03T00:10:49.391Z,4.32
2017-03-03T00:12:02.476Z,4.42
2017-03-03T00:13:15.507Z,4.36
2017-03-03T00:14:28.204Z,4.38
2017-03-03T00:15:41.268Z,4.36
2017-03-03T00:16:53.938Z,4.3
2017-03-03T00:18:06.616Z,4.34
2017-03-03T00:19:19.277Z,4.25
2017-03-03T00:20:32.325Z,4.22
2017-03-03T00:21:45.393Z,4.38
2017-03-03T00:22:58.301Z,4.32
2017-03-03T00:24:11.371Z,4.24
2017-03-03T00:25:24.480Z,4.27
2017-03-03T00:26:37.560Z,4.21
2017-03-03T00:27:50.655Z,4.25
2017-03-03T00:29:03.705Z,4.27
2017-03-03T00:30:16.776Z,4.25
2017-03-03T00:31:29.468Z,4.21
2017-03-03T00:32:42.519Z,4.22
2017-03-03T00:33:55.585Z,4.25
2017-03-03T00:35:08.281Z,4.25
2017-03-03T00:36:21.318Z,4.21
2017-03-03T00:37:34.399Z,4.28
2017-03-03T00:38:47.468Z,4.24
2017-03-03T00:40:00.507Z,4.25
2017-03-03T00:41:13.165Z,4.22
2017-03-03T00:42:25.851Z,4.27
2017-03-03T00:43:38.997Z,4.24
2017-03-03T00:44:51.715Z,4.22
2017-03-03T00:46:04.789Z,4.25
2017-03-03T00:47:17.864Z,4.3
2017-03-03T00:48:30.903Z,4.3
2017-03-03T00:49:43.952Z,4.24
2017-03-03T00:50:57.056Z,4.39
2017-03-03T00:52:10.122Z,4.22
2017-03-03T00:53:23.179Z,4.3
2017-03-03T00:54:36.243Z,4.32
2017-03-03T00:55:49.332Z,4.32
2017-03-03T00:57:02.010Z,4.31
2017-03-03T00:58:15.107Z,4.3
2017-03-03T00:59:28.195Z,4.36
2017-03-03T01:00:41.268Z,4.28
2017-03-03T01:01:53.944Z,4.3
2017-03-03T01:03:07.014Z,4.31
2017-03-03T01:04:20.057Z,4.34
2017-03-03T01:05:33.152Z,4.28
2017-03-03T01:06:46.199Z,4.27
2017-03-03T01:07:58.878Z,4.24
2017-03-03T01:09:11.940Z,4.32
2017-03-03T01:10:25.016Z,4.24
2017-03-03T01:11:37.735Z,4.22
2017-03-03T01:12:50.062Z,4.16
2017-03-03T01:14:03.157Z,4.12
2017-03-03T01:15:16.277Z,4.03
2017-03-03T01:16:28.965Z,4.07
2017-03-03T01:17:41.683Z,4.14
2017-03-03T01:18:54.742Z,4.06
2017-03-03T01:20:07.078Z,4.02
2017-03-03T01:21:20.120Z,4.03
2017-03-03T01:22:33.222Z,3.89
2017-03-03T01:23:45.921Z,3.95
2017-03-03T01:24:58.990Z,3.89
2017-03-03T01:26:12.058Z,3.92
2017-03-03T01:27:25.082Z,3.85
2017-03-03T01:28:38.406Z,3.86
2017-03-03T01:29:51.474Z,3.84
2017-03-03T01:31:04.198Z,3.76
2017-03-03T01:32:17.269Z,3.77
2017-03-03T01:33:30.339Z,3.67
2017-03-03T01:34:43.404Z,3.7
2017-03-03T01:35:56.467Z,3.74
2017-03-03T01:37:09.538Z,3.64
2017-03-03T01:38:22.572Z,3.64
2017-03-03T01:39:35.904Z,3.49
2017-03-03T01:40:48.965Z,3.53
2017-03-03T01:42:01.703Z,3.52
2017-03-03T01:43:14.792Z,3.52
2017-03-03T01:44:27.837Z,3.55
2017-03-03T01:45:40.545Z,3.52
2017-03-03T01:46:53.615Z,3.49
2017-03-03T01:48:06.701Z,3.48
2017-03-03T01:49:19.809Z,3.43
2017-03-03T01:50:32.900Z,3.31
2017-03-03T01:51:45.981Z,3.37
2017-03-03T01:52:59.045Z,3.3
2017-03-03T01:54:12.094Z,3.37
2017-03-03T01:55:25.138Z,3.34
2017-03-03T01:56:38.208Z,3.21
2017-03-03T01:57:51.296Z,3.31
2017-03-03T01:59:04.365Z,3.26
2017-03-03T02:00:17.399Z,3.21
2017-03-03T02:01:30.067Z,3.18
2017-03-03T02:02:42.754Z,3.11
2017-03-03T02:03:55.780Z,3.16
2017-03-03T02:05:08.804Z,3.16
2017-03-03T02:06:21.847Z,3.15
2017-03-03T02:07:34.934Z,3.11
2017-03-03T02:08:47.994Z,3.11
2017-03-03T02:10:01.109Z,3.11
2017-03-03T02:11:14.151Z,3.12
2017-03-03T02:12:27.247Z,3.12
2017-03-03T02:13:39.926Z,3.08
2017-03-03T02:14:52.989Z,3.11
2017-03-03T02:16:06.043Z,3.06
2017-03-03T02:17:18.730Z,3.18
2017-03-03T02:18:31.827Z,3.05
2017-03-03T02:19:44.556Z,3.09
2017-03-03T02:20:57.622Z,3.12
2017-03-03T02:22:10.696Z,3.03
2017-03-03T02:23:23.785Z,3
2017-03-03T02:24:36.828Z,2.95
2017-03-03T02:25:49.906Z,2.95
2017-03-03T02:27:02.998Z,2.95
2017-03-03T02:28:16.090Z,3
2017-03-03T02:29:29.173Z,3
2017-03-03T02:30:42.239Z,2.97
2017-03-03T02:31:54.553Z,2.98
2017-03-03T02:33:07.877Z,2.91
2017-03-03T02:34:20.926Z,2.88
2017-03-03T02:35:34.028Z,2.83
2017-03-03T02:36:46.736Z,2.87
2017-03-03T02:37:59.050Z,2.9
2017-03-03T02:39:12.089Z,2.87
2017-03-03T02:40:24.786Z,2.85
2017-03-03T02:41:37.852Z,2.73
2017-03-03T02:42:50.894Z,2.7
2017-03-03T02:44:03.945Z,2.76
2017-03-03T02:45:16.994Z,2.73
2017-03-03T02:46:30.057Z,2.75
2017-03-03T02:47:43.111Z,2.65
2017-03-03T02:48:56.180Z,2.64
2017-03-03T02:50:08.853Z,2.61
2017-03-03T02:51:21.953Z,2.64
2017-03-03T02:52:35.015Z,2.52
2017-03-03T02:53:48.086Z,2.47
2017-03-03T02:55:00.411Z,2.51
2017-03-03T02:56:13.445Z,2.54
2017-03-03T02:57:26.102Z,2.43
2017-03-03T02:58:39.170Z,2.43
2017-03-03T02:59:52.240Z,2.37
2017-03-03T03:01:05.333Z,2.41
2017-03-03T03:02:18.403Z,2.4
2017-03-03T03:03:31.453Z,2.28
2017-03-03T03:04:44.541Z,2.3
2017-03-03T03:05:57.575Z,2.23
2017-03-03T03:07:10.667Z,2.26
2017-03-03T03:08:23.757Z,2.19
2017-03-03T03:09:36.450Z,2.18
2017-03-03T03:10:49.781Z,2.15
2017-03-03T03:12:02.522Z,2.12
2017-03-03T03:13:15.591Z,2.05
2017-03-03T03:14:28.266Z,2.12
2017-03-03T03:15:41.355Z,2.12
2017-03-03T03:16:54.408Z,2.03
2017-03-03T03:18:07.509Z,2.07
2017-03-03T03:19:20.170Z,2.04
2017-03-03T03:20:33.276Z,1.97
2017-03-03T03:21:46.345Z,2.03
2017-03-03T03:22:59.465Z,2
2017-03-03T03:24:12.178Z,2.01
2017-03-03T03:25:25.308Z,2.01
2017-03-03T03:26:38.392Z,1.93
2017-03-03T03:27:51.470Z,1.92
2017-03-03T03:29:04.547Z,1.97
2017-03-03T03:30:17.616Z,1.95
2017-03-03T03:31:30.300Z,1.92
2017-03-03T03:32:43.625Z,1.79
2017-03-03T03:33:56.700Z,1.82
2017-03-03T03:35:09.775Z,1.81
2017-03-03T03:36:22.871Z,1.76
2017-03-03T03:37:35.958Z,1.78
2017-03-03T03:38:49.257Z,1.84
2017-03-03T03:40:01.913Z,1.71
2017-03-03T03:41:14.955Z,1.74
2017-03-03T03:42:27.263Z,1.64
2017-03-03T03:43:40.342Z,1.7
2017-03-03T03:44:53.041Z,1.66
2017-03-03T03:46:06.087Z,1.67
2017-03-03T03:47:19.150Z,1.58
2017-03-03T03:48:32.225Z,1.75
2017-03-03T03:49:45.274Z,1.63
2017-03-03T03:50:57.948Z,1.63
2017-03-03T03:52:11.016Z,1.68
2017-03-03T03:53:24.087Z,1.57
2017-03-03T03:54:37.136Z,1.57
2017-03-03T03:55:50.250Z,1.57
2017-03-03T03:57:02.554Z,1.56
2017-03-03T03:58:15.214Z,1.53
2017-03-03T03:59:27.900Z,1.53
2017-03-03T04:00:40.960Z,1.52
2017-03-03T04:01:54.005Z,1.49
2017-03-03T04:03:07.055Z,1.48
2017-03-03T04:04:20.126Z,1.42
2017-03-03T04:05:33.463Z,1.49
2017-03-03T04:06:46.514Z,1.38
2017-03-03T04:07:59.602Z,1.36
2017-03-03T04:09:12.687Z,1.38
2017-03-03T04:10:25.747Z,1.42
2017-03-03T04:11:38.800Z,1.43
2017-03-03T04:12:51.871Z,1.31
2017-03-03T04:14:04.931Z,1.36
2017-03-03T04:15:17.591Z,1.36
2017-03-03T04:16:30.280Z,1.4
2017-03-03T04:17:43.329Z,1.38
2017-03-03T04:18:56.405Z,1.39
2017-03-03T04:20:09.523Z,1.25
2017-03-03T04:21:22.592Z,1.31
2017-03-03T04:22:35.288Z,1.24
2017-03-03T04:23:48.355Z,1.3
2017-03-03T04:25:01.008Z,1.34
2017-03-03T04:26:14.028Z,1.28
2017-03-03T04:27:26.715Z,1.27
2017-03-03T04:28:39.761Z,1.24
2017-03-03T04:29:52.855Z,1.24
2017-03-03T04:31:05.527Z,1.18
2017-03-03T04:32:18.602Z,1.3
2017-03-03T04:33:31.656Z,1.24
2017-03-03T04:34:44.319Z,1.28
2017-03-03T04:35:57.370Z,1.14
2017-03-03T04:37:10.436Z,1.09
2017-03-03T04:38:23.485Z,1.09
2017-03-03T04:39:36.174Z,1.07
2017-03-03T04:40:49.246Z,1.13
2017-03-03T04:42:02.319Z,1.21
2017-03-03T04:43:14.994Z,1.2
2017-03-03T04:44:28.036Z,1.18
2017-03-03T04:45:41.085Z,1.16
2017-03-03T04:46:54.133Z,1.06
2017-03-03T04:48:06.847Z,1.1
2017-03-03T04:49:19.165Z,1.06
2017-03-03T04:50:32.269Z,1.07
2017-03-03T04:51:44.566Z,1.04
2017-03-03T04:52:57.633Z,1.04
2017-03-03T04:54:10.698Z,1.04
2017-03-03T04:55:23.352Z,1.04
2017-03-03T04:56:36.403Z,1.06
2017-03-03T04:57:49.440Z,1.06
2017-03-03T04:59:02.509Z,1.02
2017-03-03T05:00:15.899Z,0.99
2017-03-03T05:01:28.985Z,1.06
2017-03-03T05:02:42.053Z,1.06
2017-03-03T05:03:55.100Z,0.99
2017-03-03T05:05:07.790Z,1.04
2017-03-03T05:06:20.887Z,0.91
2017-03-03T05:07:33.941Z,0.96
2017-03-03T05:08:46.978Z,1
2017-03-03T05:10:00.028Z,0.94
2017-03-03T05:11:13.067Z,1.03
2017-03-03T05:12:26.140Z,0.96
2017-03-03T05:13:38.791Z,0.99
2017-03-03T05:14:51.863Z,0.88
2017-03-03T05:16:04.929Z,0.96
2017-03-03T05:17:17.996Z,1.04
2017-03-03T05:18:30.667Z,0.99
2017-03-03T05:19:43.721Z,0.95
2017-03-03T05:20:56.816Z,1.02
2017-03-03T05:22:10.183Z,0.94
2017-03-03T05:23:22.882Z,0.91
2017-03-03T05:24:35.925Z,0.86
2017-03-03T05:25:48.974Z,0.88
2017-03-03T05:27:02.020Z,0.91
2017-03-03T05:28:15.141Z,0.89
2017-03-03T05:29:27.843Z,0.84
2017-03-03T05:30:40.926Z,0.86
2017-03-03T05:31:53.975Z,0.91
2017-03-03T05:33:07.317Z,0.91
2017-03-03T05:34:20.400Z,0.84
2017-03-03T05:35:33.531Z,0.85
2017-03-03T05:36:46.609Z,0.86
2017-03-03T05:37:59.674Z,0.76
2017-03-03T05:39:13.001Z,0.84
2017-03-03T05:40:26.052Z,0.82
2017-03-03T05:41:39.163Z,0.81
2017-03-03T05:42:52.238Z,0.82
2017-03-03T05:44:05.290Z,0.85
2017-03-03T05:45:17.984Z,0.82
2017-03-03T05:46:31.052Z,0.7
2017-03-03T05:47:44.125Z,0.86
2017-03-03T05:48:57.239Z,0.78
2017-03-03T05:50:10.314Z,0.78
2017-03-03T05:51:23.009Z,0.7
2017-03-03T05:52:36.059Z,0.82
2017-03-03T05:53:49.132Z,0.81
2017-03-03T05:55:02.180Z,0.67
2017-03-03T05:56:15.236Z,0.76
2017-03-03T05:57:28.310Z,0.77
2017-03-03T05:58:41.364Z,0.77
2017-03-03T05:59:54.431Z,0.78
2017-03-03T06:01:07.506Z,0.78
2017-03-03T06:02:20.577Z,0.71
2017-03-03T06:03:33.644Z,0.77
2017-03-03T06:04:46.742Z,0.77
2017-03-03T06:05:59.810Z,0.78
2017-03-03T06:07:12.877Z,0.67
2017-03-03T06:08:25.951Z,0.76
2017-03-03T06:09:39.024Z,0.7
2017-03-03T06:10:51.715Z,0.77
2017-03-03T06:12:04.782Z,0.73
2017-03-03T06:13:17.861Z,0.71
2017-03-03T06:14:30.960Z,0.76
2017-03-03T06:15:43.658Z,0.74
2017-03-03T06:16:56.731Z,0.77
2017-03-03T06:18:09.437Z,0.81
2017-03-03T06:19:22.536Z,0.76
2017-03-03T06:20:35.663Z,0.76
2017-03-03T06:21:49.373Z,0.81
2017-03-03T06:23:01.420Z,0.73
2017-03-03T06:24:14.474Z,0.76
2017-03-03T06:25:27.512Z,0.73
2017-03-03T06:26:40.583Z,0.81
2017-03-03T06:27:53.645Z,0.84
2017-03-03T06:29:06.714Z,0.88
2017-03-03T06:30:19.437Z,0.85
2017-03-03T06:31:32.129Z,0.88
2017-03-03T06:32:45.173Z,0.86
2017-03-03T06:33:57.845Z,0.99
2017-03-03T06:35:10.907Z,0.91
2017-03-03T06:36:23.982Z,1.04
2017-03-03T06:37:37.006Z,1.02
2017-03-03T06:38:50.117Z,1.02
2017-03-03T06:40:03.188Z,1.03
2017-03-03T06:41:16.259Z,1.06
2017-03-03T06:42:29.315Z,1.18
2017-03-03T06:43:42.361Z,1.21
2017-03-03T06:44:55.431Z,1.25
2017-03-03T06:46:08.519Z,1.22
2017-03-03T06:47:21.595Z,1.3
2017-03-03T06:48:34.268Z,1.14
2017-03-03T06:49:47.567Z,1.28
2017-03-03T06:51:00.628Z,1.28
2017-03-03T06:52:12.928Z,1.3
2017-03-03T06:53:25.625Z,1.32
2017-03-03T06:54:38.679Z,1.34
2017-03-03T06:55:51.745Z,1.38
2017-03-03T06:57:04.829Z,1.43
2017-03-03T06:58:17.900Z,1.49
2017-03-03T06:59:30.207Z,1.56
2017-03-03T07:00:43.324Z,1.56
2017-03-03T07:01:56.372Z,1.53
2017-03-03T07:03:09.071Z,1.64
2017-03-03T07:04:22.113Z,1.66
2017-03-03T07:05:35.185Z,1.64
2017-03-03T07:06:47.829Z,1.71
2017-03-03T07:08:00.947Z,1.78
2017-03-03T07:09:13.651Z,1.79
2017-03-03T07:10:26.719Z,1.86
2017-03-03T07:11:39.389Z,1.93
2017-03-03T07:12:52.413Z,1.98
2017-03-03T07:14:05.471Z,2.04
2017-03-03T07:15:18.143Z,2.01
2017-03-03T07:16:31.191Z,2.05
2017-03-03T07:17:43.495Z,2.07
2017-03-03T07:18:56.537Z,2.04
2017-03-03T07:20:09.612Z,2.05
2017-03-03T07:21:22.696Z,2.14
2017-03-03T07:22:35.629Z,2.21
2017-03-03T07:23:48.696Z,2.26
2017-03-03T07:25:01.810Z,2.36
2017-03-03T07:26:14.513Z,2.41
2017-03-03T07:27:27.568Z,2.43
2017-03-03T07:28:40.232Z,2.47
2017-03-03T07:29:52.894Z,2.47
2017-03-03T07:31:05.547Z,2.51
2017-03-03T07:32:18.662Z,2.59
2017-03-03T07:33:31.365Z,2.7
2017-03-03T07:34:44.063Z,2.75
2017-03-03T07:35:57.134Z,2.75
2017-03-03T07:37:10.228Z,2.85
2017-03-03T07:38:22.915Z,2.91
2017-03-03T07:39:35.969Z,2.9
2017-03-03T07:40:49.058Z,2.88
2017-03-03T07:42:02.142Z,3.03
2017-03-03T07:43:14.805Z,2.94
2017-03-03T07:44:28.143Z,3.03
2017-03-03T07:45:41.204Z,3.12
2017-03-03T07:46:54.296Z,3.15
2017-03-03T07:48:07.367Z,3.13
2017-03-03T07:49:20.463Z,3.24
2017-03-03T07:50:33.158Z,3.22
2017-03-03T07:51:46.203Z,3.27
2017-03-03T07:52:59.281Z,3.33
2017-03-03T07:54:12.393Z,3.41
2017-03-03T07:55:25.441Z,3.41
2017-03-03T07:56:38.084Z,3.48
2017-03-03T07:57:51.160Z,3.66
2017-03-03T07:59:04.202Z,3.63
2017-03-03T08:00:16.876Z,3.71
2017-03-03T08:01:29.546Z,3.84
2017-03-03T08:02:42.239Z,3.82
2017-03-03T08:03:55.313Z,3.91
2017-03-03T08:05:08.398Z,4.02
2017-03-03T08:06:21.721Z,4.04
2017-03-03T08:07:34.772Z,4.12
2017-03-03T08:08:47.886Z,4.21
2017-03-03T08:10:00.907Z,4.27
2017-03-03T08:11:13.989Z,4.31
2017-03-03T08:12:27.031Z,4.34
2017-03-03T08:13:39.730Z,4.43
2017-03-03T08:14:52.826Z,4.49
2017-03-03T08:16:05.939Z,4.57
2017-03-03T08:17:18.217Z,4.64
2017-03-03T08:18:31.285Z,4.71
2017-03-03T08:19:44.361Z,4.76
2017-03-03T08:20:57.427Z,4.87
2017-03-03T08:22:10.501Z,4.87
2017-03-03T08:23:23.573Z,5
2017-03-03T08:24:36.640Z,5.05
2017-03-03T08:25:49.319Z,5.05
2017-03-03T08:27:02.017Z,5.05
2017-03-03T08:28:15.331Z,5.25
2017-03-03T08:29:28.047Z,5.29
2017-03-03T08:30:40.769Z,5.36
2017-03-03T08:31:53.843Z,5.44
2017-03-03T08:33:06.913Z,5.54
2017-03-03T08:34:19.624Z,5.65
2017-03-03T08:35:32.301Z,5.67
2017-03-03T08:36:44.976Z,5.73
2017-03-03T08:37:58.065Z,5.84
2017-03-03T08:39:11.093Z,5.87
2017-03-03T08:40:23.756Z,5.91
2017-03-03T08:41:36.811Z,6.01
2017-03-03T08:42:49.459Z,6.05
2017-03-03T08:44:02.130Z,6.05
2017-03-03T08:45:15.203Z,6.15
2017-03-03T08:46:28.258Z,6.15
2017-03-03T08:47:41.370Z,6.22
2017-03-03T08:48:54.455Z,6.19
2017-03-03T08:50:07.556Z,6.28
2017-03-03T08:51:20.649Z,6.36
2017-03-03T08:52:33.721Z,6.36
2017-03-03T08:53:46.801Z,6.38
2017-03-03T08:54:59.905Z,6.49
2017-03-03T08:56:12.979Z,6.5
2017-03-03T08:57:26.046Z,6.53
2017-03-03T08:58:38.342Z,6.68
2017-03-03T08:59:51.401Z,6.57
2017-03-03T09:01:04.463Z,6.59
2017-03-03T09:02:17.593Z,6.71
2017-03-03T09:03:30.682Z,6.72
2017-03-03T09:04:42.600Z,6.75
2017-03-03T09:05:55.679Z,6.85
2017-03-03T09:07:08.398Z,6.9
2017-03-03T09:08:21.091Z,6.95
2017-03-03T09:09:34.191Z,6.92
2017-03-03T09:10:47.239Z,7.05
2017-03-03T09:12:00.304Z,7.11
2017-03-03T09:13:13.379Z,7.08
2017-03-03T09:14:26.424Z,7.21
2017-03-03T09:15:39.516Z,7.19
2017-03-03T09:16:52.604Z,7.26
2017-03-03T09:18:05.658Z,7.29
2017-03-03T09:19:18.731Z,7.28
2017-03-03T09:20:31.419Z,7.43
2017-03-03T09:21:44.516Z,7.37
2017-03-03T09:22:57.596Z,7.43
2017-03-03T09:24:10.629Z,7.48
2017-03-03T09:25:23.679Z,7.55
2017-03-03T09:26:36.401Z,7.53
2017-03-03T09:27:49.467Z,7.53
2017-03-03T09:29:02.177Z,7.69
2017-03-03T09:30:15.296Z,7.62
2017-03-03T09:31:28.405Z,7.7
2017-03-03T09:32:41.087Z,7.67
2017-03-03T09:33:53.781Z,7.72
2017-03-03T09:35:06.880Z,7.78
2017-03-03T09:36:19.947Z,7.87
2017-03-03T09:37:32.659Z,7.88
2017-03-03T09:38:44.956Z,7.95
2017-03-03T09:39:58.038Z,7.98
2017-03-03T09:41:10.713Z,7.95
2017-03-03T09:42:23.793Z,8.05
2017-03-03T09:43:36.477Z,8.09
2017-03-03T09:44:49.147Z,8.14
2017-03-03T09:46:02.218Z,8.2
2017-03-03T09:47:15.311Z,8.2
2017-03-03T09:48:28.005Z,8.27
2017-03-03T09:49:40.698Z,8.27
2017-03-03T09:50:53.780Z,8.36
2017-03-03T09:52:06.467Z,8.36
2017-03-03T09:53:19.191Z,8.38
2017-03-03T09:54:31.843Z,8.41
2017-03-03T09:55:44.902Z,8.46
2017-03-03T09:56:57.980Z,8.49
2017-03-03T09:58:11.073Z,8.46
2017-03-03T09:59:24.173Z,8.59
2017-03-03T10:00:36.492Z,8.56
2017-03-03T10:01:49.564Z,8.59
2017-03-03T10:03:02.636Z,8.59
2017-03-03T10:04:15.727Z,8.59
2017-03-03T10:05:28.793Z,8.71
2017-03-03T10:06:41.490Z,8.71
2017-03-03T10:07:54.566Z,8.78
2017-03-03T10:09:07.615Z,8.82
2017-03-03T10:10:20.331Z,8.84
2017-03-03T10:11:33.419Z,8.74
2017-03-03T10:12:46.491Z,8.72
2017-03-03T10:13:58.814Z,8.84
2017-03-03T10:15:11.915Z,8.75
2017-03-03T10:16:24.640Z,8.86
2017-03-03T10:17:37.165Z,8.77
2017-03-03T10:18:50.256Z,8.78
2017-03-03T10:20:03.374Z,8.89
2017-03-03T10:21:16.061Z,8.87
2017-03-03T10:22:28.765Z,8.93
2017-03-03T10:23:41.853Z,8.84
2017-03-03T10:24:54.553Z,8.86
2017-03-03T10:26:07.630Z,8.95
2017-03-03T10:27:20.723Z,8.95
2017-03-03T10:28:33.437Z,8.99
2017-03-03T10:29:46.508Z,8.95
2017-03-03T10:30:59.570Z,8.93
2017-03-03T10:32:12.675Z,9
2017-03-03T10:33:25.756Z,8.99
2017-03-03T10:34:38.832Z,8.95
2017-03-03T10:35:51.938Z,8.95
2017-03-03T10:37:04.994Z,8.9
2017-03-03T10:38:18.089Z,8.95
2017-03-03T10:39:31.011Z,8.93
2017-03-03T10:40:43.702Z,9.03
2017-03-03T10:41:56.003Z,9.08
2017-03-03T10:43:09.070Z,9
2017-03-03T10:44:22.163Z,9.05
2017-03-03T10:45:35.262Z,9.08
2017-03-03T10:46:47.983Z,9.12
2017-03-03T10:48:00.675Z,9.13
2017-03-03T10:49:13.403Z,9.15
2017-03-03T10:50:26.537Z,9.15
2017-03-03T10:51:39.590Z,9.16
2017-03-03T10:52:52.287Z,9.21
2017-03-03T10:54:05.359Z,9.24
2017-03-03T10:55:18.033Z,9.29
2017-03-03T10:56:30.703Z,9.33
2017-03-03T10:57:43.789Z,9.31
2017-03-03T10:58:56.866Z,9.34
2017-03-03T11:00:09.942Z,9.33
2017-03-03T11:01:23.014Z,9.42
2017-03-03T11:02:36.108Z,9.37
2017-03-03T11:03:49.221Z,9.31
2017-03-03T11:05:02.317Z,9.44
2017-03-03T11:06:15.367Z,9.49
2017-03-03T11:07:28.445Z,9.45
2017-03-03T11:08:41.318Z,9.49
2017-03-03T11:09:54.472Z,9.51
2017-03-03T11:11:07.567Z,9.49
2017-03-03T11:12:20.275Z,9.49
2017-03-03T11:13:33.323Z,9.56
2017-03-03T11:14:46.392Z,9.49
2017-03-03T11:15:59.484Z,9.52
2017-03-03T11:17:12.571Z,9.47
2017-03-03T11:18:25.222Z,9.47
2017-03-03T11:19:38.281Z,9.54
2017-03-03T11:20:51.418Z,9.49
2017-03-03T11:22:04.509Z,9.51
2017-03-03T11:23:17.609Z,9.49
2017-03-03T11:24:30.658Z,9.45
2017-03-03T11:25:43.776Z,9.45
2017-03-03T11:26:56.813Z,9.54
2017-03-03T11:28:09.895Z,9.47
2017-03-03T11:29:22.592Z,9.48
2017-03-03T11:30:35.284Z,9.56
2017-03-03T11:31:48.330Z,9.52
2017-03-03T11:33:01.422Z,9.52
2017-03-03T11:34:14.518Z,9.52
2017-03-03T11:35:26.838Z,9.62
2017-03-03T11:36:39.535Z,9.56
2017-03-03T11:37:52.230Z,9.56
2017-03-03T11:39:05.555Z,9.58
2017-03-03T11:40:18.629Z,9.58
2017-03-03T11:41:31.715Z,9.66
2017-03-03T11:42:44.385Z,9.59
2017-03-03T11:43:57.043Z,9.59
2017-03-03T11:45:08.977Z,9.64
2017-03-03T11:46:22.027Z,9.62
2017-03-03T11:47:35.102Z,9.63
2017-03-03T11:48:48.151Z,9.63
2017-03-03T11:50:01.248Z,9.69
2017-03-03T11:51:14.314Z,9.64
2017-03-03T11:52:27.413Z,9.62
2017-03-03T11:53:40.531Z,9.54
2017-03-03T11:54:53.581Z,9.56
2017-03-03T11:56:06.648Z,9.59
2017-03-03T11:57:19.748Z,9.63
2017-03-03T11:58:32.469Z,9.62
2017-03-03T11:59:45.563Z,9.62
2017-03-03T12:00:58.898Z,9.59
2017-03-03T12:02:11.569Z,9.64
2017-03-03T12:03:24.719Z,9.64
2017-03-03T12:04:37.435Z,9.63
2017-03-03T12:05:50.511Z,9.69
2017-03-03T12:07:03.632Z,9.73
2017-03-03T12:08:16.726Z,9.73
2017-03-03T12:09:29.808Z,9.76
2017-03-03T12:10:42.869Z,9.74
2017-03-03T12:11:55.945Z,9.77
2017-03-03T12:13:09.025Z,9.72
2017-03-03T12:14:22.078Z,9.76
2017-03-03T12:15:35.149Z,9.72
2017-03-03T12:16:48.219Z,9.8
2017-03-03T12:18:01.273Z,9.76
2017-03-03T12:19:14.346Z,9.76
2017-03-03T12:20:27.008Z,9.73
2017-03-03T12:21:39.657Z,9.74
2017-03-03T12:22:52.774Z,9.76
2017-03-03T12:24:05.853Z,9.72
2017-03-03T12:25:18.958Z,9.7
2017-03-03T12:26:31.997Z,9.81
2017-03-03T12:27:45.086Z,9.82
2017-03-03T12:28:58.169Z,9.85
2017-03-03T12:30:11.249Z,9.81
2017-03-03T12:31:24.327Z,9.85
2017-03-03T12:32:37.053Z,9.85
2017-03-03T12:33:49.427Z,9.84
2017-03-03T12:35:02.497Z,9.91
2017-03-03T12:36:15.591Z,9.9
2017-03-03T12:37:28.635Z,9.91
2017-03-03T12:38:41.704Z,9.91
2017-03-03T12:39:54.041Z,9.92
2017-03-03T12:41:06.795Z,9.95
2017-03-03T12:42:19.087Z,9.95
2017-03-03T12:43:32.167Z,9.99
2017-03-03T12:44:45.249Z,9.97
2017-03-03T12:45:57.909Z,10
2017-03-03T12:47:10.949Z,10.05
2017-03-03T12:48:24.037Z,10.02
2017-03-03T12:49:36.694Z,9.97
2017-03-03T12:50:49.766Z,10.09
2017-03-03T12:52:02.458Z,10.06
2017-03-03T12:53:14.773Z,10.07
2017-03-03T12:54:27.445Z,10.06
2017-03-03T12:55:40.139Z,10.1
2017-03-03T12:56:53.233Z,10.13
2017-03-03T12:58:06.305Z,10.12
2017-03-03T12:59:19.388Z,10.07
2017-03-03T13:00:32.479Z,10.1
2017-03-03T13:01:45.570Z,10.12
2017-03-03T13:02:58.673Z,10.12
2017-03-03T13:04:10.992Z,10.09
2017-03-03T13:05:23.316Z,10.13
2017-03-03T13:06:36.400Z,10.12
2017-03-03T13:07:49.482Z,10.1
2017-03-03T13:09:02.610Z,10.15
2017-03-03T13:10:15.677Z,10.18
2017-03-03T13:11:28.726Z,10.13
2017-03-03T13:12:41.414Z,10.13
2017-03-03T13:13:53.729Z,10.15
2017-03-03T13:15:06.806Z,10.12
2017-03-03T13:16:19.492Z,10.25
2017-03-03T13:17:31.799Z,10.27
2017-03-03T13:18:44.863Z,10.23
2017-03-03T13:19:57.146Z,10.31
2017-03-03T13:21:09.859Z,10.25
2017-03-03T13:22:22.922Z,10.34
2017-03-03T13:23:36.054Z,10.34
2017-03-03T13:24:49.150Z,10.41
2017-03-03T13:26:01.848Z,10.34
2017-03-03T13:27:14.913Z,10.43
2017-03-03T13:28:27.984Z,10.49
2017-03-03T13:29:40.698Z,10.45
2017-03-03T13:30:53.807Z,10.43
2017-03-03T13:32:06.497Z,10.48
2017-03-03T13:33:19.588Z,10.58
2017-03-03T13:34:32.292Z,10.57
2017-03-03T13:35:45.043Z,10.55
2017-03-03T13:36:58.105Z,10.55
2017-03-03T13:38:11.155Z,10.64
2017-03-03T13:39:23.871Z,10.58
2017-03-03T13:40:36.986Z,10.65
2017-03-03T13:41:48.917Z,10.62
2017-03-03T13:43:01.960Z,10.68
2017-03-03T13:44:15.034Z,10.72
2017-03-03T13:45:28.127Z,10.67
2017-03-03T13:46:41.190Z,10.77
2017-03-03T13:47:54.260Z,10.64
2017-03-03T13:49:06.989Z,10.67
2017-03-03T13:50:20.057Z,10.69
2017-03-03T13:51:33.135Z,10.69
2017-03-03T13:52:46.181Z,10.72
2017-03-03T13:53:59.265Z,10.69
2017-03-03T13:55:12.415Z,10.72
2017-03-03T13:56:25.543Z,10.8
2017-03-03T13:57:38.238Z,10.76
2017-03-03T13:58:50.928Z,10.77
2017-03-03T14:00:03.622Z,10.8
2017-03-03T14:01:16.725Z,10.84
2017-03-03T14:02:29.400Z,10.89
2017-03-03T14:03:42.490Z,10.76
2017-03-03T14:04:55.607Z,10.79
2017-03-03T14:06:08.703Z,10.8
2017-03-03T14:07:21.770Z,10.77
2017-03-03T14:08:34.501Z,10.86
2017-03-03T14:09:47.624Z,10.89
2017-03-03T14:11:00.706Z,10.77
2017-03-03T14:12:13.396Z,10.89
2017-03-03T14:13:26.461Z,10.83
2017-03-03T14:14:39.578Z,10.8
2017-03-03T14:15:52.694Z,10.84
2017-03-03T14:17:05.788Z,10.89
2017-03-03T14:18:18.469Z,10.83
2017-03-03T14:19:31.537Z,10.79
2017-03-03T14:20:44.630Z,10.87
2017-03-03T14:21:57.979Z,10.8
2017-03-03T14:23:11.070Z,10.79
2017-03-03T14:24:24.203Z,10.79
2017-03-03T14:25:37.295Z,10.8
2017-03-03T14:26:50.016Z,10.83
2017-03-03T14:28:02.689Z,10.8
2017-03-03T14:29:15.753Z,10.8
2017-03-03T14:30:28.404Z,10.9
2017-03-03T14:31:41.491Z,10.86
2017-03-03T14:32:54.191Z,10.84
2017-03-03T14:34:06.891Z,10.79
2017-03-03T14:35:19.560Z,10.82
2017-03-03T14:36:32.285Z,10.75
2017-03-03T14:37:45.432Z,10.77
2017-03-03T14:38:58.521Z,10.79
2017-03-03T14:40:11.212Z,10.76
2017-03-03T14:41:24.268Z,10.79
2017-03-03T14:42:36.961Z,10.71
2017-03-03T14:43:50.034Z,10.75
2017-03-03T14:45:03.119Z,10.68
2017-03-03T14:46:15.825Z,10.67
2017-03-03T14:47:28.888Z,10.68
2017-03-03T14:48:42.009Z,10.59
2017-03-03T14:49:54.726Z,10.61
2017-03-03T14:51:07.759Z,10.51
2017-03-03T14:52:20.854Z,10.55
2017-03-03T14:53:33.966Z,10.51
2017-03-03T14:54:47.047Z,10.48
2017-03-03T14:56:00.132Z,10.39
2017-03-03T14:57:12.427Z,10.39
2017-03-03T14:58:25.477Z,10.41
2017-03-03T14:59:38.552Z,10.43
2017-03-03T15:00:51.604Z,10.39
2017-03-03T15:02:04.674Z,10.43
2017-03-03T15:03:17.342Z,10.33
2017-03-03T15:04:30.464Z,10.42
2017-03-03T15:05:43.564Z,10.33
2017-03-03T15:06:56.622Z,10.33
2017-03-03T15:08:09.697Z,10.39
2017-03-03T15:09:22.793Z,10.39
2017-03-03T15:10:35.535Z,10.34
2017-03-03T15:11:48.213Z,10.34
2017-03-03T15:13:01.281Z,10.27
2017-03-03T15:14:14.344Z,10.27
2017-03-03T15:15:27.468Z,10.27
2017-03-03T15:16:40.598Z,10.23
2017-03-03T15:17:53.718Z,10.2
2017-03-03T15:19:06.463Z,10.2
2017-03-03T15:20:19.535Z,10.2
2017-03-03T15:21:32.872Z,10.1
2017-03-03T15:22:45.947Z,10.09
2017-03-03T15:23:59.024Z,10.18
2017-03-03T15:25:11.333Z,10.07
2017-03-03T15:26:24.036Z,10.15
2017-03-03T15:27:37.087Z,10.07
2017-03-03T15:28:50.131Z,10.1
2017-03-03T15:30:03.197Z,10.1
2017-03-03T15:31:15.915Z,10
2017-03-03T15:32:28.613Z,10.03
2017-03-03T15:33:41.312Z,9.97
2017-03-03T15:34:54.385Z,9.97
2017-03-03T15:36:07.428Z,10.06
2017-03-03T15:37:20.480Z,9.95
2017-03-03T15:38:33.545Z,9.97
2017-03-03T15:39:46.291Z,9.97
2017-03-03T15:40:59.379Z,10.02
2017-03-03T15:42:12.482Z,9.97
2017-03-03T15:43:25.577Z,9.99
2017-03-03T15:44:37.926Z,9.99
2017-03-03T15:45:51.019Z,9.97
2017-03-03T15:47:04.120Z,10
2017-03-03T15:48:17.228Z,9.99
2017-03-03T15:49:30.336Z,9.97
2017-03-03T15:50:43.027Z,9.95
2017-03-03T15:51:56.106Z,10.03
2017-03-03T15:53:09.204Z,10
2017-03-03T15:54:21.890Z,10
2017-03-03T15:55:34.965Z,10.02
2017-03-03T15:56:48.060Z,10.06
2017-03-03T15:58:01.139Z,9.97
2017-03-03T15:59:14.228Z,9.94
2017-03-03T16:00:26.874Z,9.92
2017-03-03T16:01:39.190Z,9.88
2017-03-03T16:02:52.286Z,9.9
2017-03-03T16:04:05.358Z,9.91
2017-03-03T16:05:18.458Z,9.9
2017-03-03T16:06:31.149Z,9.84
2017-03-03T16:07:43.465Z,9.85
2017-03-03T16:08:56.541Z,9.87